Time;durP1;ratioP1;P1;durP2;ratioP2;P2;SDS_P1;SDS_P2;PMS_P1;PMS_P2;Temp;Humidity;BMP_temperature;BMP_pressure;BME280_temperature;BME280_humidity;BME280_pressure;Samples;Min_cycle;Max_cycle;Signal;HPM_P1;HPM_P2
2023/04/06 00:00:47;;;;;;;10.40;9.90;;;;;;;;;;5114360;28;20051;-61
2023/04/06 00:03:12;;;;;;;10.05;9.55;;;;;;;;;;5097773;28;20011;-61
2023/04/06 00:05:38;;;;;;;9.95;9.45;;;;;;;;;;5115157;28;20063;-60
2023/04/06 00:08:03;;;;;;;10.43;9.93;;;;;;;;;;5112234;28;20103;-63
2023/04/06 00:10:28;;;;;;;9.90;9.40;;;;;;;;;;5107928;28;20011;-61
2023/04/06 00:12:54;;;;;;;10.45;9.93;;;;;;;;;;5115825;28;20027;-61
2023/04/06 00:15:20;;;;;;;10.15;9.65;;;;;;;;;;5109119;28;20154;-60
2023/04/06 00:17:46;;;;;;;10.55;9.95;;;;;;;;;;5112200;28;20148;-60
2023/04/06 00:20:11;;;;;;;10.35;9.85;;;;;;;;;;5115855;28;20053;-62
2023/04/06 00:22:36;;;;;;;9.60;9.13;;;;;;;;;;5111770;28;20020;-60
2023/04/06 00:25:02;;;;;;;9.77;9.27;;;;;;;;;;5117930;27;20031;-61
2023/04/06 00:27:27;;;;;;;9.90;9.40;;;;;;;;;;5114988;28;20020;-60
2023/04/06 00:29:53;;;;;;;9.50;9.10;;;;;;;;;;5115374;28;20555;-61
2023/04/06 00:32:18;;;;;;;10.15;9.65;;;;;;;;;;5114796;28;20095;-61
2023/04/06 00:34:43;;;;;;;10.05;9.55;;;;;;;;;;5114475;28;20047;-61
2023/04/06 00:37:09;;;;;;;10.00;9.50;;;;;;;;;;5112703;28;20028;-60
2023/04/06 00:39:34;;;;;;;10.52;9.93;;;;;;;;;;5115658;28;20039;-61
2023/04/06 00:42:00;;;;;;;10.25;9.73;;;;;;;;;;5115005;28;20390;-61
2023/04/06 00:44:26;;;;;;;10.85;10.25;;;;;;;;;;5115039;28;20068;-61
2023/04/06 00:46:52;;;;;;;10.02;9.52;;;;;;;;;;5115255;28;20494;-60
2023/04/06 00:49:17;;;;;;;9.65;9.15;;;;;;;;;;5113524;28;20020;-61
2023/04/06 00:51:42;;;;;;;9.93;9.43;;;;;;;;;;5108831;28;20431;-61
2023/04/06 00:54:08;;;;;;;10.40;9.90;;;;;;;;;;5115301;28;20604;-62
2023/04/06 00:56:33;;;;;;;10.45;9.85;;;;;;;;;;5115065;28;20382;-62
2023/04/06 00:58:59;;;;;;;10.15;9.65;;;;;;;;;;5115062;28;20043;-62
2023/04/06 01:01:24;;;;;;;10.10;9.60;;;;;;;;;;5113997;28;20039;-62
2023/04/06 01:03:50;;;;;;;10.70;10.10;;;;;;;;;;5114834;28;20463;-62
2023/04/06 01:06:15;;;;;;;10.05;9.55;;;;;;;;;;5106340;28;20027;-62
2023/04/06 01:08:41;;;;;;;10.40;9.90;;;;;;;;;;5115126;27;20027;-61
2023/04/06 01:11:06;;;;;;;10.05;9.55;;;;;;;;;;5112172;28;20019;-60
2023/04/06 01:13:32;;;;;;;10.25;9.73;;;;;;;;;;5108293;28;20019;-60
2023/04/06 01:15:57;;;;;;;10.07;9.57;;;;;;;;;;5108715;28;20106;-61
2023/04/06 01:18:26;;;;;;;10.30;9.80;;;;;;;;;;5109624;28;20016;-61
2023/04/06 01:20:52;;;;;;;9.93;9.43;;;;;;;;;;5114389;28;20059;-61
2023/04/06 01:23:17;;;;;;;10.00;9.50;;;;;;;;;;5113294;28;20047;-61
2023/04/06 01:25:42;;;;;;;10.07;9.57;;;;;;;;;;5127938;27;20068;-61
2023/04/06 01:28:08;;;;;;;9.52;9.10;;;;;;;;;;5110770;27;20044;-61
2023/04/06 01:30:33;;;;;;;10.13;9.60;;;;;;;;;;5130211;27;20016;-60
2023/04/06 01:32:58;;;;;;;9.80;9.30;;;;;;;;;;5114314;28;20025;-61
2023/04/06 01:35:27;;;;;;;10.68;10.07;;;;;;;;;;5113790;28;20019;-61
2023/04/06 01:37:53;;;;;;;9.85;9.35;;;;;;;;;;5114198;28;20619;-62
2023/04/06 01:40:18;;;;;;;10.13;9.63;;;;;;;;;;5113735;28;20034;-62
2023/04/06 01:42:43;;;;;;;10.55;9.95;;;;;;;;;;5113509;28;20034;-62
2023/04/06 01:45:09;;;;;;;9.90;9.40;;;;;;;;;;5113773;28;20531;-62
2023/04/06 01:47:34;;;;;;;10.00;9.50;;;;;;;;;;5113159;28;20011;-60
2023/04/06 01:50:00;;;;;;;9.93;9.43;;;;;;;;;;5113467;28;20045;-62
2023/04/06 01:52:25;;;;;;;9.95;9.45;;;;;;;;;;5112775;28;20466;-61
2023/04/06 01:54:50;;;;;;;10.27;9.77;;;;;;;;;;5113958;28;20102;-61
2023/04/06 01:57:16;;;;;;;9.98;9.48;;;;;;;;;;5113965;28;20505;-62
2023/04/06 01:59:41;;;;;;;10.00;9.50;;;;;;;;;;5111657;28;20032;-61
2023/04/06 02:02:06;;;;;;;10.43;9.88;;;;;;;;;;5112844;28;20065;-61
2023/04/06 02:04:32;;;;;;;10.05;9.55;;;;;;;;;;5113151;28;20077;-61
2023/04/06 02:06:57;;;;;;;10.95;10.35;;;;;;;;;;5113516;28;20394;-61
2023/04/06 02:09:22;;;;;;;10.93;10.32;;;;;;;;;;5105023;28;20008;-61
2023/04/06 02:11:48;;;;;;;10.00;9.50;;;;;;;;;;5110922;28;20114;-61
2023/04/06 02:14:13;;;;;;;9.80;9.30;;;;;;;;;;5103705;28;20070;-61
2023/04/06 02:16:38;;;;;;;10.05;9.55;;;;;;;;;;5108343;28;20026;-61
2023/04/06 02:19:04;;;;;;;10.05;9.55;;;;;;;;;;5113209;28;20024;-61
2023/04/06 02:21:29;;;;;;;10.30;9.80;;;;;;;;;;5112509;28;20049;-61
2023/04/06 02:23:55;;;;;;;10.20;9.70;;;;;;;;;;5116856;27;20007;-60
2023/04/06 02:26:20;;;;;;;10.82;10.23;;;;;;;;;;5113866;27;20043;-60
2023/04/06 02:28:45;;;;;;;10.35;9.80;;;;;;;;;;5110048;28;20470;-60
2023/04/06 02:31:11;;;;;;;10.70;10.10;;;;;;;;;;5113217;28;20050;-61
2023/04/06 02:33:37;;;;;;;10.38;9.88;;;;;;;;;;5113160;28;20058;-61
2023/04/06 02:36:02;;;;;;;10.57;10.07;;;;;;;;;;5113194;28;20024;-61
2023/04/06 02:38:27;;;;;;;10.00;9.50;;;;;;;;;;5106234;28;20023;-61
2023/04/06 02:40:53;;;;;;;9.95;9.45;;;;;;;;;;5113319;28;20152;-61
2023/04/06 02:43:19;;;;;;;9.70;9.25;;;;;;;;;;5109463;27;20021;-61
2023/04/06 02:45:44;;;;;;;10.43;9.93;;;;;;;;;;5113158;28;20106;-61
2023/04/06 02:48:10;;;;;;;9.57;9.10;;;;;;;;;;5113007;28;20106;-61
2023/04/06 02:50:35;;;;;;;10.30;9.80;;;;;;;;;;5112785;28;20026;-61
2023/04/06 02:53:00;;;;;;;10.43;9.82;;;;;;;;;;5112216;28;20024;-61
2023/04/06 02:55:26;;;;;;;10.73;10.13;;;;;;;;;;5112728;28;20106;-60
2023/04/06 02:57:51;;;;;;;10.65;10.05;;;;;;;;;;5112653;28;20019;-60
2023/04/06 03:00:16;;;;;;;10.30;9.77;;;;;;;;;;5107663;28;20048;-62
2023/04/06 03:02:42;;;;;;;10.20;9.70;;;;;;;;;;5101895;28;20098;-62
2023/04/06 03:05:07;;;;;;;10.35;9.80;;;;;;;;;;5100359;28;20023;-59
2023/04/06 03:07:33;;;;;;;9.70;9.20;;;;;;;;;;5110119;28;20475;-60
2023/04/06 03:09:58;;;;;;;10.20;9.70;;;;;;;;;;5112597;28;20531;-61
2023/04/06 03:12:23;;;;;;;9.57;9.10;;;;;;;;;;5112496;28;20107;-61
2023/04/06 03:14:49;;;;;;;10.63;10.02;;;;;;;;;;5121364;27;20102;-61
2023/04/06 03:17:14;;;;;;;10.88;10.27;;;;;;;;;;5107581;28;20111;-62
2023/04/06 03:19:40;;;;;;;10.15;9.63;;;;;;;;;;5107799;28;20031;-61
2023/04/06 03:22:05;;;;;;;10.45;9.88;;;;;;;;;;5114679;27;20023;-63
2023/04/06 03:24:30;;;;;;;10.13;9.63;;;;;;;;;;5117526;27;20019;-60
2023/04/06 03:26:56;;;;;;;9.70;9.20;;;;;;;;;;5100224;28;20580;-62
2023/04/06 03:29:21;;;;;;;10.30;9.80;;;;;;;;;;5112148;28;20498;-60
2023/04/06 03:31:47;;;;;;;10.38;9.82;;;;;;;;;;5111879;28;20474;-62
2023/04/06 03:34:12;;;;;;;10.30;9.80;;;;;;;;;;5110110;28;20028;-60
2023/04/06 03:36:37;;;;;;;10.63;10.07;;;;;;;;;;5093057;28;20039;-61
2023/04/06 03:39:03;;;;;;;10.18;9.68;;;;;;;;;;5116348;28;20471;-62
2023/04/06 03:41:28;;;;;;;10.32;9.82;;;;;;;;;;5111957;28;20031;-60
2023/04/06 03:43:54;;;;;;;10.20;9.70;;;;;;;;;;5112129;28;20023;-61
2023/04/06 03:46:19;;;;;;;10.43;9.93;;;;;;;;;;5110998;28;20425;-61
2023/04/06 03:48:45;;;;;;;10.40;9.85;;;;;;;;;;5111504;28;20012;-62
2023/04/06 03:51:10;;;;;;;9.80;9.30;;;;;;;;;;5110465;28;20480;-61
2023/04/06 03:53:37;;;;;;;10.18;9.68;;;;;;;;;;5103233;28;20023;-61
2023/04/06 03:56:02;;;;;;;10.95;10.35;;;;;;;;;;5109683;28;20550;-61
2023/04/06 03:58:27;;;;;;;10.60;10.00;;;;;;;;;;5111912;28;20103;-61
2023/04/06 04:00:53;;;;;;;10.68;10.07;;;;;;;;;;5102624;28;20138;-60
2023/04/06 04:03:18;;;;;;;10.35;9.85;;;;;;;;;;5098976;28;20057;-61
2023/04/06 04:05:43;;;;;;;10.73;10.13;;;;;;;;;;5110157;28;20015;-62
2023/04/06 04:08:09;;;;;;;10.02;9.52;;;;;;;;;;5103682;28;20402;-62
2023/04/06 04:10:34;;;;;;;10.82;10.23;;;;;;;;;;5109019;28;20152;-60
2023/04/06 04:13:00;;;;;;;10.70;10.10;;;;;;;;;;5111690;28;20065;-61
2023/04/06 04:15:25;;;;;;;10.90;10.30;;;;;;;;;;5113479;28;20043;-59
2023/04/06 04:17:50;;;;;;;10.65;10.05;;;;;;;;;;5111254;28;20382;-60
2023/04/06 04:20:16;;;;;;;10.27;9.77;;;;;;;;;;5111938;28;20031;-60
2023/04/06 04:22:41;;;;;;;11.00;10.40;;;;;;;;;;5104611;28;20397;-61
2023/04/06 04:25:07;;;;;;;9.98;9.48;;;;;;;;;;5110051;28;20047;-60
2023/04/06 04:27:32;;;;;;;11.27;10.68;;;;;;;;;;5111657;28;20031;-61
2023/04/06 04:29:58;;;;;;;10.40;9.85;;;;;;;;;;5111503;28;20111;-63
2023/04/06 04:32:27;;;;;;;9.95;9.45;;;;;;;;;;5111296;28;20027;-60
2023/04/06 04:34:52;;;;;;;10.90;10.30;;;;;;;;;;5109652;28;20020;-60
2023/04/06 04:37:17;;;;;;;10.25;9.75;;;;;;;;;;5109354;28;20023;-61
2023/04/06 04:39:43;;;;;;;11.05;10.45;;;;;;;;;;5108016;28;20111;-61
2023/04/06 04:42:08;;;;;;;10.63;10.02;;;;;;;;;;5107531;28;20065;-61
2023/04/06 04:44:34;;;;;;;10.10;9.60;;;;;;;;;;5114576;28;20019;-61
2023/04/06 04:46:59;;;;;;;10.77;10.18;;;;;;;;;;5106348;28;20394;-61
2023/04/06 04:49:24;;;;;;;9.95;9.45;;;;;;;;;;5110395;28;20019;-61
2023/04/06 04:51:52;;;;;;;11.27;10.68;;;;;;;;;;5110198;28;20016;-61
2023/04/06 04:54:17;;;;;;;10.57;10.00;;;;;;;;;;5115197;28;20027;-61
2023/04/06 04:56:43;;;;;;;10.68;10.07;;;;;;;;;;5107435;28;20032;-61
2023/04/06 04:59:08;;;;;;;10.77;10.18;;;;;;;;;;5112339;28;20034;-61
2023/04/06 05:01:33;;;;;;;10.13;9.63;;;;;;;;;;5113700;28;20044;-61
2023/04/06 05:03:58;;;;;;;10.73;10.13;;;;;;;;;;5113501;28;20014;-61
2023/04/06 05:06:25;;;;;;;10.38;9.80;;;;;;;;;;5113869;28;20024;-60
2023/04/06 05:08:50;;;;;;;10.75;10.15;;;;;;;;;;5100520;28;20501;-61
2023/04/06 05:11:16;;;;;;;11.52;10.82;;;;;;;;;;5105889;28;20035;-61
2023/04/06 05:13:41;;;;;;;12.05;11.25;;;;;;;;;;5112246;28;20106;-62
2023/04/06 05:16:06;;;;;;;10.65;10.05;;;;;;;;;;5113878;28;20027;-60
2023/04/06 05:18:32;;;;;;;9.70;9.20;;;;;;;;;;5112845;28;20072;-60
2023/04/06 05:20:57;;;;;;;10.52;9.98;;;;;;;;;;5117137;27;20163;-60
2023/04/06 05:23:22;;;;;;;10.55;9.98;;;;;;;;;;5113363;28;20022;-60
2023/04/06 05:25:48;;;;;;;11.90;11.15;;;;;;;;;;5111556;28;20159;-59
2023/04/06 05:28:15;;;;;;;10.55;9.98;;;;;;;;;;5111367;27;20030;-59
2023/04/06 05:30:41;;;;;;;11.23;10.52;;;;;;;;;;5112127;28;20039;-61
2023/04/06 05:33:07;;;;;;;10.90;10.30;;;;;;;;;;5102015;28;20019;-61
2023/04/06 05:35:32;;;;;;;11.60;10.90;;;;;;;;;;5103619;28;20080;-60
2023/04/06 05:37:57;;;;;;;10.57;9.98;;;;;;;;;;5110465;28;20024;-61
2023/04/06 05:40:22;;;;;;;10.73;10.13;;;;;;;;;;5104735;28;20099;-58
2023/04/06 05:42:49;;;;;;;10.65;10.05;;;;;;;;;;5104329;28;20023;-62
2023/04/06 05:45:16;;;;;;;12.27;11.48;;;;;;;;;;5112130;28;20091;-60
2023/04/06 05:47:42;;;;;;;11.90;11.15;;;;;;;;;;5106458;28;20047;-61
2023/04/06 05:50:08;;;;;;;10.85;10.25;;;;;;;;;;5111327;28;20054;-61
2023/04/06 05:52:33;;;;;;;9.88;9.38;;;;;;;;;;5113147;28;20495;-61
2023/04/06 05:54:58;;;;;;;9.93;9.43;;;;;;;;;;5113507;28;20023;-60
2023/04/06 05:57:24;;;;;;;10.98;10.35;;;;;;;;;;5106670;28;20034;-61
2023/04/06 05:59:50;;;;;;;11.23;10.60;;;;;;;;;;5103856;28;20102;-61
2023/04/06 06:02:15;;;;;;;11.65;10.95;;;;;;;;;;5108412;28;20122;-61
2023/04/06 06:04:41;;;;;;;10.70;10.10;;;;;;;;;;5110886;28;20111;-61
2023/04/06 06:07:06;;;;;;;11.00;10.40;;;;;;;;;;5111024;28;20463;-62
2023/04/06 06:09:31;;;;;;;10.80;10.20;;;;;;;;;;5102570;28;20533;-61
2023/04/06 06:11:57;;;;;;;10.60;10.00;;;;;;;;;;5101442;28;20708;-62
2023/04/06 06:14:22;;;;;;;10.85;10.25;;;;;;;;;;5112525;27;20027;-62
2023/04/06 06:16:47;;;;;;;10.32;9.80;;;;;;;;;;5113196;28;20019;-61
2023/04/06 06:19:13;;;;;;;10.40;9.80;;;;;;;;;;5113332;28;20042;-61
2023/04/06 06:21:38;;;;;;;11.27;10.60;;;;;;;;;;5095612;28;20060;-61
2023/04/06 06:24:04;;;;;;;10.55;9.95;;;;;;;;;;5101680;28;20023;-61
2023/04/06 06:26:29;;;;;;;10.63;10.02;;;;;;;;;;5110206;28;20024;-62
2023/04/06 06:28:55;;;;;;;10.13;9.63;;;;;;;;;;5112738;28;20646;-61
2023/04/06 06:31:22;;;;;;;10.23;9.63;;;;;;;;;;5113297;28;20059;-61
2023/04/06 06:33:50;;;;;;;10.60;10.00;;;;;;;;;;5112921;28;20544;-61
2023/04/06 06:36:15;;;;;;;11.23;10.57;;;;;;;;;;5113290;28;20023;-62
2023/04/06 06:38:41;;;;;;;11.88;11.18;;;;;;;;;;5107691;27;20362;-61
2023/04/06 06:41:06;;;;;;;10.82;10.23;;;;;;;;;;5111969;28;20035;-62
2023/04/06 06:43:31;;;;;;;11.50;10.80;;;;;;;;;;5105999;28;20015;-61
2023/04/06 06:45:58;;;;;;;10.75;10.15;;;;;;;;;;5105345;28;20035;-65
2023/04/06 06:48:23;;;;;;;12.30;11.50;;;;;;;;;;5099190;27;20038;-64
2023/04/06 06:50:49;;;;;;;10.40;9.85;;;;;;;;;;5106509;27;20024;-66
2023/04/06 06:53:15;;;;;;;10.93;10.32;;;;;;;;;;5103247;27;20570;-65
2023/04/06 06:55:40;;;;;;;11.15;10.48;;;;;;;;;;5106406;27;20650;-64
2023/04/06 06:58:06;;;;;;;11.15;10.52;;;;;;;;;;5115215;27;20406;-65
2023/04/06 07:00:32;;;;;;;11.82;11.13;;;;;;;;;;5116825;27;20051;-64
2023/04/06 07:02:57;;;;;;;10.50;9.90;;;;;;;;;;5110396;27;20034;-64
2023/04/06 07:05:22;;;;;;;10.80;10.20;;;;;;;;;;5106143;28;20022;-66
2023/04/06 07:07:48;;;;;;;11.18;10.57;;;;;;;;;;5087728;27;20016;-65
2023/04/06 07:10:14;;;;;;;10.45;9.85;;;;;;;;;;5104369;27;20060;-65
2023/04/06 07:12:40;;;;;;;10.93;10.32;;;;;;;;;;5100904;28;20085;-64
2023/04/06 07:15:06;;;;;;;11.60;10.90;;;;;;;;;;5108269;27;20031;-64
2023/04/06 07:17:31;;;;;;;10.15;9.65;;;;;;;;;;5110340;27;20546;-66
2023/04/06 07:19:56;;;;;;;10.45;9.85;;;;;;;;;;5109686;28;20023;-67
2023/04/06 07:22:22;;;;;;;10.07;9.57;;;;;;;;;;5114489;27;20032;-66
2023/04/06 07:24:47;;;;;;;10.95;10.35;;;;;;;;;;5111889;27;20012;-63
2023/04/06 07:27:12;;;;;;;10.35;9.82;;;;;;;;;;5111619;27;20055;-62
2023/04/06 07:29:38;;;;;;;11.35;10.65;;;;;;;;;;5111826;28;20022;-62
2023/04/06 07:32:04;;;;;;;11.35;10.65;;;;;;;;;;5112281;27;20244;-63
2023/04/06 07:34:29;;;;;;;10.25;9.70;;;;;;;;;;5115081;27;20470;-63
2023/04/06 07:36:56;;;;;;;11.35;10.65;;;;;;;;;;5115693;27;20032;-63
2023/04/06 07:39:21;;;;;;;10.60;10.00;;;;;;;;;;5113701;28;20111;-63
2023/04/06 07:41:47;;;;;;;10.60;10.00;;;;;;;;;;5111339;28;20054;-62
2023/04/06 07:44:12;;;;;;;10.38;9.82;;;;;;;;;;5111941;28;20020;-65
2023/04/06 07:46:37;;;;;;;11.23;10.55;;;;;;;;;;5114818;28;20447;-63
2023/04/06 07:49:03;;;;;;;10.75;10.15;;;;;;;;;;5110527;28;20541;-65
2023/04/06 07:51:29;;;;;;;10.00;9.50;;;;;;;;;;5102093;28;20528;-64
2023/04/06 07:53:54;;;;;;;11.07;10.43;;;;;;;;;;5109241;28;20016;-64
2023/04/06 07:56:20;;;;;;;10.88;10.27;;;;;;;;;;5095680;28;20049;-65
2023/04/06 07:58:46;;;;;;;11.60;10.90;;;;;;;;;;5110178;28;20031;-64
2023/04/06 08:01:11;;;;;;;10.75;10.15;;;;;;;;;;5102893;28;20052;-65
2023/04/06 08:03:36;;;;;;;11.35;10.68;;;;;;;;;;5094746;28;20081;-66
2023/04/06 08:06:02;;;;;;;10.75;10.15;;;;;;;;;;5095128;28;20085;-65
2023/04/06 08:08:27;;;;;;;10.32;9.75;;;;;;;;;;5110903;28;20367;-67
2023/04/06 08:10:53;;;;;;;10.13;9.63;;;;;;;;;;5105186;28;20023;-65
2023/04/06 08:13:19;;;;;;;10.18;9.68;;;;;;;;;;5101425;28;20020;-65
2023/04/06 08:15:44;;;;;;;10.75;10.15;;;;;;;;;;5103804;28;20054;-64
2023/04/06 08:18:10;;;;;;;10.02;9.52;;;;;;;;;;5098465;28;20020;-67
2023/04/06 08:20:35;;;;;;;10.65;10.05;;;;;;;;;;5112251;28;20024;-65
2023/04/06 08:23:01;;;;;;;10.88;10.27;;;;;;;;;;5108800;27;20374;-65
2023/04/06 08:25:26;;;;;;;11.23;10.57;;;;;;;;;;5102828;27;20131;-65
2023/04/06 08:27:51;;;;;;;10.60;10.00;;;;;;;;;;5107079;27;20377;-64
2023/04/06 08:30:18;;;;;;;11.13;10.52;;;;;;;;;;5106736;27;20016;-64
2023/04/06 08:32:44;;;;;;;10.80;10.20;;;;;;;;;;5107454;28;20122;-66
2023/04/06 08:35:09;;;;;;;10.60;10.00;;;;;;;;;;5112351;28;20198;-64
2023/04/06 08:37:35;;;;;;;10.10;9.60;;;;;;;;;;5110707;27;20020;-65
2023/04/06 08:40:00;;;;;;;10.07;9.57;;;;;;;;;;5113179;27;20525;-63
2023/04/06 08:42:26;;;;;;;9.68;9.18;;;;;;;;;;5106759;27;20398;-64
2023/04/06 08:44:52;;;;;;;10.20;9.65;;;;;;;;;;5095677;27;20416;-63
2023/04/06 08:47:17;;;;;;;11.02;10.38;;;;;;;;;;5116821;27;20080;-63
2023/04/06 08:49:44;;;;;;;10.50;9.90;;;;;;;;;;5115308;27;20130;-66
2023/04/06 08:52:10;;;;;;;10.63;10.02;;;;;;;;;;5110045;27;20494;-67
2023/04/06 08:54:35;;;;;;;11.27;10.63;;;;;;;;;;5104756;27;20027;-65
2023/04/06 08:57:02;;;;;;;11.63;10.93;;;;;;;;;;5111371;27;20256;-65
2023/04/06 08:59:27;;;;;;;10.25;9.75;;;;;;;;;;5109396;27;20072;-65
2023/04/06 09:01:53;;;;;;;10.35;9.80;;;;;;;;;;5113987;28;20039;-66
2023/04/06 09:04:18;;;;;;;10.63;10.02;;;;;;;;;;5107131;27;20008;-66
2023/04/06 09:06:44;;;;;;;11.35;10.65;;;;;;;;;;5077021;27;20019;-66
2023/04/06 09:09:09;;;;;;;11.00;10.40;;;;;;;;;;5110804;27;20382;-66
2023/04/06 09:11:47;;;;;;;10.77;10.18;;;;;;;;;;5112536;28;20024;-65
2023/04/06 09:14:14;;;;;;;10.95;10.35;;;;;;;;;;5111755;27;20037;-66
2023/04/06 09:16:41;;;;;;;10.82;10.23;;;;;;;;;;5114146;27;20020;-66
2023/04/06 09:19:07;;;;;;;11.00;10.40;;;;;;;;;;5113648;27;20514;-65
2023/04/06 09:21:33;;;;;;;11.50;10.80;;;;;;;;;;5087193;27;20032;-66
2023/04/06 09:23:59;;;;;;;11.05;10.45;;;;;;;;;;5110917;27;20072;-65
2023/04/06 09:26:25;;;;;;;11.02;10.43;;;;;;;;;;5110979;27;20070;-66
2023/04/06 09:28:51;;;;;;;11.27;10.63;;;;;;;;;;5107833;28;20051;-67
2023/04/06 09:31:35;;;;;;;11.25;10.63;;;;;;;;;;5104758;27;20591;-66
2023/04/06 09:34:01;;;;;;;12.40;11.60;;;;;;;;;;5100090;28;20611;-67
2023/04/06 09:36:30;;;;;;;11.30;10.60;;;;;;;;;;5103194;27;20099;-66
2023/04/06 09:38:56;;;;;;;10.77;10.18;;;;;;;;;;5107556;27;20031;-65
2023/04/06 09:41:25;;;;;;;10.65;10.05;;;;;;;;;;5119142;27;20499;-66
2023/04/06 09:43:52;;;;;;;12.57;11.77;;;;;;;;;;5108238;28;20551;-64
2023/04/06 09:46:18;;;;;;;12.20;11.50;;;;;;;;;;5105888;27;20741;-66
2023/04/06 09:48:43;;;;;;;13.00;12.18;;;;;;;;;;5105328;27;20035;-66
2023/04/06 09:51:11;;;;;;;10.80;10.20;;;;;;;;;;5105922;27;20042;-66
2023/04/06 09:53:38;;;;;;;12.38;11.57;;;;;;;;;;5114458;27;20024;-65
2023/04/06 09:56:05;;;;;;;10.98;10.38;;;;;;;;;;5105705;27;20046;-67
2023/04/06 09:58:33;;;;;;;11.35;10.75;;;;;;;;;;5104989;28;20024;-65
2023/04/06 10:01:01;;;;;;;11.40;10.70;;;;;;;;;;5106491;27;20055;-65
2023/04/06 10:03:33;;;;;;;11.68;10.98;;;;;;;;;;5101772;28;20020;-67
2023/04/06 10:06:02;;;;;;;10.25;9.75;;;;;;;;;;5099879;27;20410;-65
2023/04/06 10:08:28;;;;;;;10.82;10.23;;;;;;;;;;5103893;28;20374;-66
2023/04/06 10:10:54;;;;;;;11.45;10.75;;;;;;;;;;5099304;27;20023;-66
2023/04/06 10:13:19;;;;;;;11.57;10.88;;;;;;;;;;5114021;27;20389;-64
2023/04/06 10:15:45;;;;;;;11.55;10.85;;;;;;;;;;5116227;27;20111;-66
2023/04/06 10:18:10;;;;;;;11.70;11.00;;;;;;;;;;5103522;28;20394;-68
2023/04/06 10:20:36;;;;;;;11.07;10.48;;;;;;;;;;5107944;27;20367;-67
2023/04/06 10:23:20;;;;;;;12.05;11.35;;;;;;;;;;5106503;27;20587;-66
2023/04/06 10:25:56;;;;;;;11.35;10.68;;;;;;;;;;5108521;28;20035;-67
2023/04/06 10:28:21;;;;;;;11.55;10.85;;;;;;;;;;5111272;27;20019;-66
2023/04/06 10:30:47;;;;;;;10.82;10.23;;;;;;;;;;5111940;27;20508;-64
2023/04/06 10:33:13;;;;;;;11.20;10.60;;;;;;;;;;5107011;27;20020;-66
2023/04/06 10:35:39;;;;;;;11.88;11.18;;;;;;;;;;5108669;28;20497;-64
2023/04/06 10:38:05;;;;;;;11.55;10.85;;;;;;;;;;5107251;28;20032;-64
2023/04/06 10:40:31;;;;;;;11.98;11.27;;;;;;;;;;5095810;28;20111;-66
2023/04/06 10:43:06;;;;;;;11.77;11.07;;;;;;;;;;5106673;28;20036;-66
2023/04/06 10:45:32;;;;;;;12.23;11.48;;;;;;;;;;5099362;27;20020;-66
2023/04/06 10:47:57;;;;;;;11.65;10.95;;;;;;;;;;5099574;27;20034;-68
2023/04/06 10:50:23;;;;;;;12.18;11.45;;;;;;;;;;5079721;28;20019;-65
2023/04/06 10:52:58;;;;;;;12.20;11.48;;;;;;;;;;5101944;28;20043;-65
2023/04/06 10:55:25;;;;;;;11.60;10.93;;;;;;;;;;5106778;27;20498;-66
2023/04/06 10:57:51;;;;;;;11.38;10.77;;;;;;;;;;5105746;28;20020;-68
2023/04/06 11:00:17;;;;;;;11.68;10.98;;;;;;;;;;5109734;27;20104;-64
2023/04/06 11:02:42;;;;;;;12.23;11.52;;;;;;;;;;5100495;27;20028;-65
2023/04/06 11:05:07;;;;;;;10.70;10.10;;;;;;;;;;5103096;28;20032;-66
2023/04/06 11:07:33;;;;;;;10.20;9.70;;;;;;;;;;5103534;28;20475;-66
2023/04/06 11:09:58;;;;;;;11.52;10.88;;;;;;;;;;5097692;27;20038;-67
2023/04/06 11:12:25;;;;;;;10.68;10.07;;;;;;;;;;5108588;27;20028;-68
2023/04/06 11:15:06;;;;;;;10.80;10.20;;;;;;;;;;5101947;27;20027;-67
2023/04/06 11:17:33;;;;;;;10.75;10.15;;;;;;;;;;5107941;27;20123;-64
2023/04/06 11:19:58;;;;;;;10.90;10.30;;;;;;;;;;5097497;27;20024;-64
2023/04/06 11:22:24;;;;;;;11.23;10.63;;;;;;;;;;5115199;27;20115;-66
2023/04/06 11:24:50;;;;;;;10.80;10.20;;;;;;;;;;5107303;27;20421;-68
2023/04/06 11:27:16;;;;;;;10.75;10.15;;;;;;;;;;5113413;27;20069;-66
2023/04/06 11:29:41;;;;;;;11.32;10.73;;;;;;;;;;5103809;27;20023;-67
2023/04/06 11:32:08;;;;;;;11.32;10.73;;;;;;;;;;5098864;28;20054;-67
2023/04/06 11:34:38;;;;;;;12.15;11.45;;;;;;;;;;5110379;27;20098;-65
2023/04/06 11:37:06;;;;;;;11.30;10.70;;;;;;;;;;5110966;27;20015;-65
2023/04/06 11:39:35;;;;;;;12.23;11.52;;;;;;;;;;5097139;28;20042;-65
2023/04/06 11:42:02;;;;;;;12.40;11.65;;;;;;;;;;5113433;27;20042;-66
2023/04/06 11:44:27;;;;;;;11.93;11.23;;;;;;;;;;5102360;27;20061;-66
2023/04/06 11:46:53;;;;;;;11.90;11.20;;;;;;;;;;5084426;28;20024;-65
2023/04/06 11:49:18;;;;;;;11.60;10.95;;;;;;;;;;5107619;28;20019;-65
2023/04/06 11:51:43;;;;;;;11.05;10.45;;;;;;;;;;5115489;28;20565;-64
2023/04/06 11:54:10;;;;;;;12.57;11.77;;;;;;;;;;5103718;28;20030;-66
2023/04/06 11:56:35;;;;;;;11.38;10.75;;;;;;;;;;5095078;28;20046;-64
2023/04/06 11:59:00;;;;;;;10.63;10.02;;;;;;;;;;5102248;28;20490;-67
2023/04/06 12:01:26;;;;;;;11.38;10.75;;;;;;;;;;5112671;28;20047;-67
2023/04/06 12:03:52;;;;;;;11.77;11.07;;;;;;;;;;5104555;28;20519;-65
2023/04/06 12:06:17;;;;;;;11.80;11.10;;;;;;;;;;5105350;28;20111;-66
2023/04/06 12:08:43;;;;;;;11.40;10.80;;;;;;;;;;5106880;28;20378;-66
2023/04/06 12:11:08;;;;;;;11.73;11.02;;;;;;;;;;5102983;28;20031;-66
2023/04/06 12:13:33;;;;;;;11.25;10.65;;;;;;;;;;5100812;28;20024;-67
2023/04/06 12:15:59;;;;;;;11.15;10.55;;;;;;;;;;5102531;28;20023;-66
2023/04/06 12:18:25;;;;;;;10.93;10.32;;;;;;;;;;5110217;28;20479;-67
2023/04/06 12:20:51;;;;;;;12.13;11.43;;;;;;;;;;5105153;28;20440;-66
2023/04/06 12:23:16;;;;;;;11.50;10.80;;;;;;;;;;5107926;28;20420;-66
2023/04/06 12:25:42;;;;;;;11.57;10.88;;;;;;;;;;5107267;28;20080;-67
2023/04/06 12:28:07;;;;;;;11.38;10.73;;;;;;;;;;5102767;28;20019;-66
2023/04/06 12:30:34;;;;;;;11.80;11.10;;;;;;;;;;5108949;28;20027;-64
2023/04/06 12:32:59;;;;;;;11.63;10.93;;;;;;;;;;5109911;28;20481;-65
2023/04/06 12:35:25;;;;;;;11.57;10.88;;;;;;;;;;5106864;28;20100;-65
2023/04/06 12:37:50;;;;;;;11.68;10.98;;;;;;;;;;5099565;28;20023;-67
2023/04/06 12:40:16;;;;;;;10.90;10.30;;;;;;;;;;5102687;28;20028;-67
2023/04/06 12:42:41;;;;;;;11.32;10.65;;;;;;;;;;5109602;28;20028;-66
2023/04/06 12:45:07;;;;;;;11.82;11.13;;;;;;;;;;5100152;28;20098;-67
2023/04/06 12:47:32;;;;;;;11.52;10.82;;;;;;;;;;5078798;28;20098;-63
2023/04/06 12:49:58;;;;;;;11.15;10.55;;;;;;;;;;5096747;28;20020;-66
2023/04/06 12:52:23;;;;;;;11.70;11.00;;;;;;;;;;5110147;28;20406;-66
2023/04/06 12:54:48;;;;;;;11.98;11.27;;;;;;;;;;5107145;28;20023;-66
2023/04/06 12:57:14;;;;;;;12.48;11.68;;;;;;;;;;5103846;28;20027;-65
2023/04/06 12:59:44;;;;;;;11.68;10.98;;;;;;;;;;5094948;28;20471;-66
2023/04/06 13:02:10;;;;;;;12.48;11.68;;;;;;;;;;5103365;28;20043;-66
2023/04/06 13:04:35;;;;;;;11.73;11.02;;;;;;;;;;5105269;27;20102;-67
2023/04/06 13:07:00;;;;;;;10.82;10.23;;;;;;;;;;5108347;27;20106;-66
2023/04/06 13:09:26;;;;;;;10.82;10.23;;;;;;;;;;5111351;27;20016;-68
2023/04/06 13:11:51;;;;;;;11.25;10.60;;;;;;;;;;5108581;28;20555;-68
2023/04/06 13:14:17;;;;;;;11.30;10.65;;;;;;;;;;5110846;27;20027;-66
2023/04/06 13:16:42;;;;;;;11.15;10.55;;;;;;;;;;5111422;27;20102;-68
2023/04/06 13:19:08;;;;;;;11.70;11.00;;;;;;;;;;5109135;27;20593;-69
2023/04/06 13:21:33;;;;;;;11.07;10.48;;;;;;;;;;5079753;28;20043;-67
2023/04/06 13:23:58;;;;;;;10.85;10.25;;;;;;;;;;5096466;28;20019;-65
2023/04/06 13:26:25;;;;;;;11.50;10.80;;;;;;;;;;5101597;28;20463;-67
2023/04/06 13:28:50;;;;;;;10.85;10.25;;;;;;;;;;5102440;27;20030;-67
2023/04/06 13:31:15;;;;;;;12.25;11.50;;;;;;;;;;5097201;27;20027;-68
2023/04/06 13:33:41;;;;;;;11.57;10.90;;;;;;;;;;5097492;27;20154;-66
2023/04/06 13:36:07;;;;;;;12.00;11.27;;;;;;;;;;5094118;27;20036;-67
2023/04/06 13:38:33;;;;;;;11.70;11.00;;;;;;;;;;5110220;28;20575;-67
2023/04/06 13:40:59;;;;;;;11.50;10.80;;;;;;;;;;5085558;28;20110;-66
2023/04/06 13:43:26;;;;;;;11.57;10.88;;;;;;;;;;5101553;27;20114;-65
2023/04/06 13:45:53;;;;;;;11.93;11.23;;;;;;;;;;5089367;28;20035;-64
2023/04/06 13:48:19;;;;;;;11.15;10.55;;;;;;;;;;5104796;27;20103;-65
2023/04/06 13:50:45;;;;;;;10.98;10.38;;;;;;;;;;5099605;27;20099;-65
2023/04/06 13:53:10;;;;;;;11.75;11.05;;;;;;;;;;5111060;27;20076;-66
2023/04/06 13:55:36;;;;;;;12.77;11.98;;;;;;;;;;5118844;27;20035;-65
2023/04/06 13:58:01;;;;;;;12.02;11.32;;;;;;;;;;5116034;27;20016;-64
2023/04/06 14:00:26;;;;;;;11.70;11.00;;;;;;;;;;5105167;27;20048;-65
2023/04/06 14:02:53;;;;;;;12.40;11.63;;;;;;;;;;5092298;27;20028;-67
2023/04/06 14:05:18;;;;;;;10.40;9.90;;;;;;;;;;5105494;27;20380;-66
2023/04/06 14:07:44;;;;;;;13.07;12.23;;;;;;;;;;5109360;27;20080;-66
2023/04/06 14:10:13;;;;;;;11.85;11.15;;;;;;;;;;5117317;27;20027;-67
2023/04/06 14:12:39;;;;;;;10.88;10.27;;;;;;;;;;5100217;28;20119;-67
2023/04/06 14:15:05;;;;;;;11.23;10.63;;;;;;;;;;5116512;27;20031;-67